sensor_id;sensor_type;location;lat;lon;timestamp;pressure;altitude;pressure_sealevel;temperature;humidity
68822;BME280;55834;50.870;4.606;2023-02-11T00:00:45;102885.91;;;4.88;59.66
68822;BME280;55834;50.870;4.606;2023-02-11T00:03:11;102880.13;;;4.99;58.72
68822;BME280;55834;50.870;4.606;2023-02-11T00:05:36;102874.34;;;5.10;58.53
68822;BME280;55834;50.870;4.606;2023-02-11T00:08:02;102874.13;;;4.73;59.17
68822;BME280;55834;50.870;4.606;2023-02-11T00:10:27;102871.25;;;4.66;59.20
68822;BME280;55834;50.870;4.606;2023-02-11T00:12:53;102864.72;;;4.80;59.67
68822;BME280;55834;50.870;4.606;2023-02-11T00:15:18;102866.72;;;4.59;58.70
68822;BME280;55834;50.870;4.606;2023-02-11T00:17:45;102876.75;;;4.18;60.24
68822;BME280;55834;50.870;4.606;2023-02-11T00:20:10;102878.50;;;4.46;60.13
68822;BME280;55834;50.870;4.606;2023-02-11T00:22:35;102879.91;;;4.35;61.02
68822;BME280;55834;50.870;4.606;2023-02-11T00:25:01;102872.03;;;4.62;60.07
68822;BME280;55834;50.870;4.606;2023-02-11T00:27:26;102867.41;;;4.82;58.85
68822;BME280;55834;50.870;4.606;2023-02-11T00:29:52;102870.81;;;4.50;59.63
68822;BME280;55834;50.870;4.606;2023-02-11T00:32:17;102872.91;;;4.62;59.93
68822;BME280;55834;50.870;4.606;2023-02-11T00:34:42;102870.81;;;4.50;58.82
68822;BME280;55834;50.870;4.606;2023-02-11T00:37:08;102862.00;;;4.75;59.33
68822;BME280;55834;50.870;4.606;2023-02-11T00:39:33;102866.97;;;4.39;59.71
68822;BME280;55834;50.870;4.606;2023-02-11T00:41:58;102880.00;;;3.85;61.69
68822;BME280;55834;50.870;4.606;2023-02-11T00:44:24;102860.38;;;4.23;60.44
68822;BME280;55834;50.870;4.606;2023-02-11T00:46:49;102857.41;;;4.68;60.38
68822;BME280;55834;50.870;4.606;2023-02-11T00:49:14;102855.88;;;4.19;59.69
68822;BME280;55834;50.870;4.606;2023-02-11T00:51:40;102854.06;;;3.90;61.21
68822;BME280;55834;50.870;4.606;2023-02-11T00:54:06;102835.91;;;4.21;60.32
68822;BME280;55834;50.870;4.606;2023-02-11T00:56:31;102842.38;;;4.61;60.60
68822;BME280;55834;50.870;4.606;2023-02-11T00:58:57;102823.00;;;4.86;58.57
68822;BME280;55834;50.870;4.606;2023-02-11T01:01:22;102819.47;;;4.54;59.10
68822;BME280;55834;50.870;4.606;2023-02-11T01:03:48;102814.13;;;4.80;59.59
68822;BME280;55834;50.870;4.606;2023-02-11T01:06:13;102819.97;;;4.42;59.08
68822;BME280;55834;50.870;4.606;2023-02-11T01:08:39;102829.19;;;4.29;59.91
68822;BME280;55834;50.870;4.606;2023-02-11T01:11:07;102831.03;;;4.61;58.96
68822;BME280;55834;50.870;4.606;2023-02-11T01:13:35;102825.88;;;4.64;58.74
68822;BME280;55834;50.870;4.606;2023-02-11T01:16:02;102824.16;;;4.66;58.75
68822;BME280;55834;50.870;4.606;2023-02-11T01:18:27;102827.72;;;4.68;59.36
68822;BME280;55834;50.870;4.606;2023-02-11T01:20:53;102832.88;;;4.36;59.86
68822;BME280;55834;50.870;4.606;2023-02-11T01:23:18;102824.84;;;4.30;60.47
68822;BME280;55834;50.870;4.606;2023-02-11T01:25:44;102824.16;;;4.66;59.73
68822;BME280;55834;50.870;4.606;2023-02-11T01:28:15;102820.50;;;4.59;60.23
68822;BME280;55834;50.870;4.606;2023-02-11T01:30:40;102827.03;;;4.45;60.11
68822;BME280;55834;50.870;4.606;2023-02-11T01:33:06;102832.25;;;4.73;60.67
68822;BME280;55834;50.870;4.606;2023-02-11T01:35:31;102835.72;;;5.03;59.28
68822;BME280;55834;50.870;4.606;2023-02-11T01:37:56;102839.13;;;5.30;58.58
68822;BME280;55834;50.870;4.606;2023-02-11T01:40:22;102840.19;;;5.07;57.67
68822;BME280;55834;50.870;4.606;2023-02-11T01:42:47;102832.88;;;4.95;59.13
68822;BME280;55834;50.870;4.606;2023-02-11T01:45:48;102831.69;;;3.72;61.87
68822;BME280;55834;50.870;4.606;2023-02-11T01:48:27;102838.34;;;4.15;62.57
68822;BME280;55834;50.870;4.606;2023-02-11T01:51:20;102843.31;;;4.35;61.72
68822;BME280;55834;50.870;4.606;2023-02-11T01:53:43;102841.75;;;4.14;62.23
68822;BME280;55834;50.870;4.606;2023-02-11T01:56:29;102844.66;;;4.50;60.97
68822;BME280;55834;50.870;4.606;2023-02-11T01:59:19;102847.78;;;4.67;59.61
68822;BME280;55834;50.870;4.606;2023-02-11T02:01:52;102849.09;;;5.12;58.99
68822;BME280;55834;50.870;4.606;2023-02-11T02:04:22;102848.00;;;5.05;58.06
68822;BME280;55834;50.870;4.606;2023-02-11T02:06:55;102852.22;;;4.70;59.26
68822;BME280;55834;50.870;4.606;2023-02-11T02:09:27;102847.50;;;5.17;60.40
68822;BME280;55834;50.870;4.606;2023-02-11T02:11:56;102841.69;;;5.27;57.82
68822;BME280;55834;50.870;4.606;2023-02-11T02:14:21;102834.81;;;5.32;57.55
68822;BME280;55834;50.870;4.606;2023-02-11T02:16:46;102842.81;;;4.76;58.98
68822;BME280;55834;50.870;4.606;2023-02-11T02:19:31;102835.44;;;5.24;59.77
68822;BME280;55834;50.870;4.606;2023-02-11T02:27:40;102833.38;;;4.24;61.24
68822;BME280;55834;50.870;4.606;2023-02-11T02:33:23;102833.19;;;5.06;59.32
68822;BME280;55834;50.870;4.606;2023-02-11T02:36:17;102830.84;;;4.26;61.21
68822;BME280;55834;50.870;4.606;2023-02-11T02:38:54;102826.41;;;4.25;63.31
68822;BME280;55834;50.870;4.606;2023-02-11T02:41:30;102820.72;;;4.67;61.14
68822;BME280;55834;50.870;4.606;2023-02-11T02:43:56;102818.53;;;5.11;60.47
68822;BME280;55834;50.870;4.606;2023-02-11T02:46:26;102819.16;;;4.43;61.31
68822;BME280;55834;50.870;4.606;2023-02-11T02:48:53;102823.72;;;4.81;61.40
68822;BME280;55834;50.870;4.606;2023-02-11T02:57:18;102817.72;;;5.47;60.00
68822;BME280;55834;50.870;4.606;2023-02-11T03:02:30;102811.09;;;5.61;57.87
68822;BME280;55834;50.870;4.606;2023-02-11T03:10:29;102818.72;;;4.29;61.55
68822;BME280;55834;50.870;4.606;2023-02-11T03:12:56;102820.19;;;5.07;60.38
68822;BME280;55834;50.870;4.606;2023-02-11T03:15:23;102809.16;;;5.19;60.77
68822;BME280;55834;50.870;4.606;2023-02-11T03:17:53;102812.88;;;5.27;60.05
68822;BME280;55834;50.870;4.606;2023-02-11T03:20:21;102813.78;;;4.39;61.54
68822;BME280;55834;50.870;4.606;2023-02-11T03:22:52;102806.00;;;4.70;62.82
68822;BME280;55834;50.870;4.606;2023-02-11T03:25:21;102801.00;;;5.08;61.68
68822;BME280;55834;50.870;4.606;2023-02-11T03:28:07;102800.94;;;5.07;61.41
68822;BME280;55834;50.870;4.606;2023-02-11T03:30:37;102806.97;;;5.36;60.14
68822;BME280;55834;50.870;4.606;2023-02-11T03:33:23;102812.56;;;5.50;59.49
68822;BME280;55834;50.870;4.606;2023-02-11T03:35:55;102808.03;;;5.44;59.54
68822;BME280;55834;50.870;4.606;2023-02-11T03:38:28;102801.25;;;5.51;60.01
68822;BME280;55834;50.870;4.606;2023-02-11T03:40:56;102796.41;;;5.68;59.42
68822;BME280;55834;50.870;4.606;2023-02-11T03:43:30;102803.09;;;5.55;58.79
68822;BME280;55834;50.870;4.606;2023-02-11T03:45:56;102804.03;;;5.57;59.07
68822;BME280;55834;50.870;4.606;2023-02-11T03:48:26;102793.41;;;5.52;59.27
68822;BME280;55834;50.870;4.606;2023-02-11T03:50:55;102789.88;;;5.17;59.94
68822;BME280;55834;50.870;4.606;2023-02-11T03:53:21;102794.22;;;5.16;60.77
68822;BME280;55834;50.870;4.606;2023-02-11T03:55:48;102799.81;;;4.98;60.47
68822;BME280;55834;50.870;4.606;2023-02-11T03:58:15;102812.25;;;5.37;60.81
68822;BME280;55834;50.870;4.606;2023-02-11T04:00:44;102802.88;;;5.82;59.76
68822;BME280;55834;50.870;4.606;2023-02-11T04:03:10;102799.50;;;5.86;58.75
68822;BME280;55834;50.870;4.606;2023-02-11T04:05:36;102801.31;;;5.88;59.16
68822;BME280;55834;50.870;4.606;2023-02-11T04:08:02;102802.38;;;4.97;60.07
68822;BME280;55834;50.870;4.606;2023-02-11T04:10:28;102793.53;;;5.24;61.25
68822;BME280;55834;50.870;4.606;2023-02-11T04:12:53;102797.25;;;5.65;60.35
68822;BME280;55834;50.870;4.606;2023-02-11T04:15:19;102809.41;;;5.63;60.01
68822;BME280;55834;50.870;4.606;2023-02-11T04:17:44;102815.81;;;5.41;60.46
68822;BME280;55834;50.870;4.606;2023-02-11T04:20:10;102819.81;;;5.27;60.98
68822;BME280;55834;50.870;4.606;2023-02-11T04:22:36;102814.06;;;5.40;60.52
68822;BME280;55834;50.870;4.606;2023-02-11T04:25:02;102804.53;;;5.43;60.35
68822;BME280;55834;50.870;4.606;2023-02-11T04:27:28;102805.19;;;5.70;59.83
68822;BME280;55834;50.870;4.606;2023-02-11T04:29:53;102803.88;;;5.87;59.73
68822;BME280;55834;50.870;4.606;2023-02-11T04:32:19;102818.47;;;5.76;59.60
68822;BME280;55834;50.870;4.606;2023-02-11T04:34:44;102823.03;;;5.83;58.78
68822;BME280;55834;50.870;4.606;2023-02-11T04:37:10;102822.84;;;5.42;60.34
68822;BME280;55834;50.870;4.606;2023-02-11T04:39:35;102825.66;;;5.16;61.22
68822;BME280;55834;50.870;4.606;2023-02-11T04:42:01;102818.09;;;5.27;61.24
68822;BME280;55834;50.870;4.606;2023-02-11T04:44:26;102826.53;;;5.17;60.78
68822;BME280;55834;50.870;4.606;2023-02-11T04:46:52;102822.47;;;5.61;60.75
68822;BME280;55834;50.870;4.606;2023-02-11T04:49:17;102821.97;;;5.76;59.03
68822;BME280;55834;50.870;4.606;2023-02-11T04:51:43;102809.03;;;5.82;59.25
68822;BME280;55834;50.870;4.606;2023-02-11T04:54:11;102798.88;;;5.61;60.18
68822;BME280;55834;50.870;4.606;2023-02-11T04:56:37;102794.78;;;5.71;59.42
68822;BME280;55834;50.870;4.606;2023-02-11T04:59:03;102792.47;;;5.85;59.98
68822;BME280;55834;50.870;4.606;2023-02-11T05:01:29;102804.63;;;5.47;59.37
68822;BME280;55834;50.870;4.606;2023-02-11T05:03:54;102803.06;;;5.89;59.64
68822;BME280;55834;50.870;4.606;2023-02-11T05:06:20;102798.13;;;5.65;59.28
68822;BME280;55834;50.870;4.606;2023-02-11T05:08:45;102798.41;;;5.78;59.58
68822;BME280;55834;50.870;4.606;2023-02-11T05:11:15;102787.00;;;5.76;59.25
68822;BME280;55834;50.870;4.606;2023-02-11T05:13:43;102792.47;;;5.50;60.28
68822;BME280;55834;50.870;4.606;2023-02-11T05:16:08;102783.94;;;5.94;60.35
68822;BME280;55834;50.870;4.606;2023-02-11T05:18:36;102786.84;;;5.35;59.64
68822;BME280;55834;50.870;4.606;2023-02-11T05:21:05;102777.97;;;5.30;60.81
68822;BME280;55834;50.870;4.606;2023-02-11T05:23:31;102792.91;;;5.67;60.89
68822;BME280;55834;50.870;4.606;2023-02-11T05:25:56;102787.34;;;5.89;59.94
68822;BME280;55834;50.870;4.606;2023-02-11T05:28:22;102781.97;;;5.83;60.42
68822;BME280;55834;50.870;4.606;2023-02-11T05:30:47;102779.78;;;5.65;59.63
68822;BME280;55834;50.870;4.606;2023-02-11T05:33:12;102777.88;;;5.25;60.39
68822;BME280;55834;50.870;4.606;2023-02-11T05:35:38;102773.09;;;5.78;61.23
68822;BME280;55834;50.870;4.606;2023-02-11T05:38:03;102771.41;;;5.80;59.51
68822;BME280;55834;50.870;4.606;2023-02-11T05:40:28;102772.50;;;5.90;60.10
68822;BME280;55834;50.870;4.606;2023-02-11T05:42:54;102759.22;;;5.82;59.88
68822;BME280;55834;50.870;4.606;2023-02-11T05:45:19;102762.78;;;5.86;59.69
68822;BME280;55834;50.870;4.606;2023-02-11T05:47:44;102777.25;;;5.35;60.24
68822;BME280;55834;50.870;4.606;2023-02-11T05:50:09;102767.38;;;5.96;61.15
68822;BME280;55834;50.870;4.606;2023-02-11T05:52:35;102774.03;;;5.80;59.67
68822;BME280;55834;50.870;4.606;2023-02-11T05:55:00;102775.84;;;5.84;59.67
68822;BME280;55834;50.870;4.606;2023-02-11T05:57:26;102777.25;;;5.70;60.22
68822;BME280;55834;50.870;4.606;2023-02-11T05:59:51;102783.22;;;5.63;60.06
68822;BME280;55834;50.870;4.606;2023-02-11T06:02:16;102780.16;;;5.81;59.76
68822;BME280;55834;50.870;4.606;2023-02-11T06:04:42;102779.00;;;5.70;61.24
68822;BME280;55834;50.870;4.606;2023-02-11T06:07:08;102775.84;;;5.83;60.15
68822;BME280;55834;50.870;4.606;2023-02-11T06:09:33;102783.03;;;5.92;60.38
68822;BME280;55834;50.870;4.606;2023-02-11T06:11:59;102783.09;;;5.95;59.04
68822;BME280;55834;50.870;4.606;2023-02-11T06:14:24;102793.84;;;5.69;60.08
68822;BME280;55834;50.870;4.606;2023-02-11T06:16:50;102785.72;;;5.95;59.70
68822;BME280;55834;50.870;4.606;2023-02-11T06:19:15;102787.75;;;6.08;58.56
68822;BME280;55834;50.870;4.606;2023-02-11T06:21:40;102788.81;;;5.42;59.98
68822;BME280;55834;50.870;4.606;2023-02-11T06:24:06;102775.44;;;5.68;60.41
68822;BME280;55834;50.870;4.606;2023-02-11T06:26:32;102767.50;;;6.01;60.49
68822;BME280;55834;50.870;4.606;2023-02-11T06:29:00;102766.84;;;6.11;60.06
68822;BME280;55834;50.870;4.606;2023-02-11T06:31:26;102764.16;;;6.06;58.68
68822;BME280;55834;50.870;4.606;2023-02-11T06:33:52;102768.59;;;6.10;58.82
68822;BME280;55834;50.870;4.606;2023-02-11T06:36:20;102779.22;;;6.17;59.06
68822;BME280;55834;50.870;4.606;2023-02-11T06:38:47;102777.94;;;5.98;59.02
68822;BME280;55834;50.870;4.606;2023-02-11T06:41:15;102769.72;;;5.84;59.58
68822;BME280;55834;50.870;4.606;2023-02-11T06:43:41;102776.09;;;5.24;61.44
68822;BME280;55834;50.870;4.606;2023-02-11T06:46:07;102773.72;;;5.68;61.70
68822;BME280;55834;50.870;4.606;2023-02-11T06:48:33;102777.72;;;5.88;61.62
68822;BME280;55834;50.870;4.606;2023-02-11T06:51:07;102779.69;;;5.99;59.62
68822;BME280;55834;50.870;4.606;2023-02-11T06:53:39;102788.47;;;5.64;60.80
68822;BME280;55834;50.870;4.606;2023-02-11T06:56:07;102787.41;;;5.56;61.41
68822;BME280;55834;50.870;4.606;2023-02-11T06:58:32;102793.38;;;5.85;61.35
68822;BME280;55834;50.870;4.606;2023-02-11T07:00:58;102785.94;;;6.04;60.21
68822;BME280;55834;50.870;4.606;2023-02-11T07:03:24;102780.41;;;6.31;59.85
68822;BME280;55834;50.870;4.606;2023-02-11T07:05:49;102785.22;;;6.11;58.86
68822;BME280;55834;50.870;4.606;2023-02-11T07:08:15;102793.06;;;6.09;60.03
68822;BME280;55834;50.870;4.606;2023-02-11T07:10:40;102786.25;;;5.80;59.83
68822;BME280;55834;50.870;4.606;2023-02-11T07:13:05;102788.34;;;5.95;60.54
68822;BME280;55834;50.870;4.606;2023-02-11T07:15:31;102786.47;;;5.89;59.90
68822;BME280;55834;50.870;4.606;2023-02-11T07:17:57;102795.00;;;5.82;60.78
68822;BME280;55834;50.870;4.606;2023-02-11T07:20:23;102800.25;;;6.18;60.84
68822;BME280;55834;50.870;4.606;2023-02-11T07:22:48;102793.31;;;6.20;59.41
68822;BME280;55834;50.870;4.606;2023-02-11T07:25:14;102799.25;;;6.13;59.00
68822;BME280;55834;50.870;4.606;2023-02-11T07:27:39;102800.25;;;6.20;60.13
68822;BME280;55834;50.870;4.606;2023-02-11T07:30:05;102803.06;;;6.26;59.41
68822;BME280;55834;50.870;4.606;2023-02-11T07:32:31;102811.28;;;6.05;59.40
68822;BME280;55834;50.870;4.606;2023-02-11T07:34:56;102810.41;;;6.04;60.20
68822;BME280;55834;50.870;4.606;2023-02-11T07:37:22;102821.22;;;6.18;60.59
68822;BME280;55834;50.870;4.606;2023-02-11T07:39:47;102824.81;;;6.22;60.26
68822;BME280;55834;50.870;4.606;2023-02-11T07:42:12;102824.75;;;5.48;61.16
68822;BME280;55834;50.870;4.606;2023-02-11T07:44:38;102832.34;;;5.38;62.18
68822;BME280;55834;50.870;4.606;2023-02-11T07:47:03;102828.78;;;5.68;62.51
68822;BME280;55834;50.870;4.606;2023-02-11T07:49:29;102834.91;;;5.70;61.12
68822;BME280;55834;50.870;4.606;2023-02-11T07:51:54;102827.38;;;5.82;61.64
68822;BME280;55834;50.870;4.606;2023-02-11T07:54:19;102834.09;;;5.73;61.02
68822;BME280;55834;50.870;4.606;2023-02-11T07:56:45;102837.09;;;6.23;61.31
68822;BME280;55834;50.870;4.606;2023-02-11T07:59:10;102832.88;;;5.93;60.36
68822;BME280;55834;50.870;4.606;2023-02-11T08:01:36;102835.25;;;5.84;60.97
68822;BME280;55834;50.870;4.606;2023-02-11T08:04:02;102840.72;;;6.29;61.58
68822;BME280;55834;50.870;4.606;2023-02-11T08:06:30;102840.88;;;6.36;60.08
68822;BME280;55834;50.870;4.606;2023-02-11T08:08:56;102838.13;;;6.31;60.15
68822;BME280;55834;50.870;4.606;2023-02-11T08:11:27;102846.84;;;6.30;59.97
68822;BME280;55834;50.870;4.606;2023-02-11T08:13:53;102854.38;;;6.52;60.37
68822;BME280;55834;50.870;4.606;2023-02-11T08:16:22;102854.91;;;6.75;59.58
68822;BME280;55834;50.870;4.606;2023-02-11T08:18:48;102853.88;;;6.69;58.21
68822;BME280;55834;50.870;4.606;2023-02-11T08:21:13;102855.22;;;6.14;59.96
68822;BME280;55834;50.870;4.606;2023-02-11T08:23:40;102857.97;;;6.18;60.46
68822;BME280;55834;50.870;4.606;2023-02-11T08:26:08;102868.06;;;6.39;59.99
68822;BME280;55834;50.870;4.606;2023-02-11T08:28:36;102861.38;;;6.14;61.28
68822;BME280;55834;50.870;4.606;2023-02-11T08:31:08;102869.69;;;6.34;60.35
68822;BME280;55834;50.870;4.606;2023-02-11T08:33:33;102859.75;;;6.59;59.66
68822;BME280;55834;50.870;4.606;2023-02-11T08:35:59;102876.00;;;6.80;59.51
68822;BME280;55834;50.870;4.606;2023-02-11T08:38:24;102869.97;;;6.86;57.99
68822;BME280;55834;50.870;4.606;2023-02-11T08:40:50;102875.16;;;6.81;58.64
68822;BME280;55834;50.870;4.606;2023-02-11T08:43:15;102872.03;;;7.00;59.17
68822;BME280;55834;50.870;4.606;2023-02-11T08:45:41;102868.28;;;6.88;58.13
68822;BME280;55834;50.870;4.606;2023-02-11T08:48:06;102871.09;;;6.95;58.54
68822;BME280;55834;50.870;4.606;2023-02-11T08:50:31;102871.34;;;7.09;58.25
68822;BME280;55834;50.870;4.606;2023-02-11T08:52:57;102874.41;;;6.87;58.31
68822;BME280;55834;50.870;4.606;2023-02-11T08:55:22;102886.47;;;6.78;58.13
68822;BME280;55834;50.870;4.606;2023-02-11T08:57:47;102883.91;;;6.44;60.92
68822;BME280;55834;50.870;4.606;2023-02-11T09:00:13;102883.59;;;6.66;59.95
68822;BME280;55834;50.870;4.606;2023-02-11T09:02:39;102881.75;;;6.26;60.49
68822;BME280;55834;50.870;4.606;2023-02-11T09:05:05;102893.47;;;6.42;60.25
68822;BME280;55834;50.870;4.606;2023-02-11T09:07:30;102893.25;;;6.69;60.10
68822;BME280;55834;50.870;4.606;2023-02-11T09:09:55;102893.13;;;6.26;60.04
68822;BME280;55834;50.870;4.606;2023-02-11T09:12:21;102901.00;;;6.26;61.14
68822;BME280;55834;50.870;4.606;2023-02-11T09:14:46;102905.91;;;6.49;60.95
68822;BME280;55834;50.870;4.606;2023-02-11T09:17:11;102905.56;;;6.71;60.17
68822;BME280;55834;50.870;4.606;2023-02-11T09:19:37;102900.78;;;6.17;60.55
68822;BME280;55834;50.870;4.606;2023-02-11T09:22:02;102901.63;;;6.54;61.58
68822;BME280;55834;50.870;4.606;2023-02-11T09:24:27;102904.97;;;6.85;60.65
68822;BME280;55834;50.870;4.606;2023-02-11T09:26:53;102897.75;;;6.74;59.27
68822;BME280;55834;50.870;4.606;2023-02-11T09:29:18;102907.31;;;6.34;61.17
68822;BME280;55834;50.870;4.606;2023-02-11T09:31:43;102903.41;;;6.17;60.73
68822;BME280;55834;50.870;4.606;2023-02-11T09:34:09;102903.69;;;6.29;61.34
68822;BME280;55834;50.870;4.606;2023-02-11T09:36:37;102903.13;;;6.43;62.05
68822;BME280;55834;50.870;4.606;2023-02-11T09:39:08;102897.38;;;6.59;61.03
68822;BME280;55834;50.870;4.606;2023-02-11T09:44:22;102898.09;;;6.52;61.38
68822;BME280;55834;50.870;4.606;2023-02-11T09:46:57;102894.97;;;6.67;60.31
68822;BME280;55834;50.870;4.606;2023-02-11T09:49:32;102897.78;;;6.76;60.27
68822;BME280;55834;50.870;4.606;2023-02-11T09:52:17;102905.94;;;6.88;60.50
68822;BME280;55834;50.870;4.606;2023-02-11T09:54:56;102909.00;;;6.69;61.16
68822;BME280;55834;50.870;4.606;2023-02-11T09:57:25;102916.69;;;6.25;61.95
68822;BME280;55834;50.870;4.606;2023-02-11T09:59:53;102915.09;;;6.66;61.98
68822;BME280;55834;50.870;4.606;2023-02-11T10:07:53;102905.41;;;6.65;61.55
68822;BME280;55834;50.870;4.606;2023-02-11T10:23:36;102924.16;;;7.21;60.02
68822;BME280;55834;50.870;4.606;2023-02-11T10:26:10;102926.25;;;7.39;59.79
68822;BME280;55834;50.870;4.606;2023-02-11T10:28:36;102931.69;;;7.47;59.45
68822;BME280;55834;50.870;4.606;2023-02-11T10:31:16;102934.47;;;7.56;59.16
68822;BME280;55834;50.870;4.606;2023-02-11T10:33:46;102932.63;;;6.69;62.29
68822;BME280;55834;50.870;4.606;2023-02-11T10:36:44;102939.25;;;6.89;62.11
68822;BME280;55834;50.870;4.606;2023-02-11T10:39:13;102940.75;;;7.20;60.88
68822;BME280;55834;50.870;4.606;2023-02-11T10:41:43;102942.88;;;6.97;60.70
68822;BME280;55834;50.870;4.606;2023-02-11T10:44:20;102929.75;;;7.38;61.03
68822;BME280;55834;50.870;4.606;2023-02-11T10:46:48;102937.06;;;7.55;59.49
68822;BME280;55834;50.870;4.606;2023-02-11T10:49:33;102943.22;;;6.72;61.39
68822;BME280;55834;50.870;4.606;2023-02-11T10:52:23;102940.03;;;6.50;63.12
68822;BME280;55834;50.870;4.606;2023-02-11T10:57:25;102937.56;;;6.93;61.36
68822;BME280;55834;50.870;4.606;2023-02-11T10:59:56;102936.75;;;6.95;61.20
68822;BME280;55834;50.870;4.606;2023-02-11T11:02:26;102942.25;;;7.09;61.29
68822;BME280;55834;50.870;4.606;2023-02-11T11:04:58;102944.56;;;7.35;60.52
68822;BME280;55834;50.870;4.606;2023-02-11T11:07:32;102951.44;;;6.89;61.85
68822;BME280;55834;50.870;4.606;2023-02-11T11:10:07;102950.16;;;7.09;61.60
68822;BME280;55834;50.870;4.606;2023-02-11T11:12:49;102942.50;;;7.18;61.49
68822;BME280;55834;50.870;4.606;2023-02-11T11:15:26;102943.25;;;7.58;60.67
68822;BME280;55834;50.870;4.606;2023-02-11T11:18:17;102941.66;;;7.66;59.78
68822;BME280;55834;50.870;4.606;2023-02-11T11:20:59;102945.22;;;7.68;59.91
68822;BME280;55834;50.870;4.606;2023-02-11T11:23:26;102943.94;;;7.04;60.44
68822;BME280;55834;50.870;4.606;2023-02-11T11:26:06;102938.91;;;7.59;59.64
68822;BME280;55834;50.870;4.606;2023-02-11T11:28:40;102943.47;;;7.69;59.12
68822;BME280;55834;50.870;4.606;2023-02-11T11:31:18;102947.63;;;7.58;58.87
68822;BME280;55834;50.870;4.606;2023-02-11T11:33:45;102941.50;;;7.56;59.90
68822;BME280;55834;50.870;4.606;2023-02-11T11:36:16;102939.41;;;7.85;59.53
68822;BME280;55834;50.870;4.606;2023-02-11T11:39:37;102935.09;;;7.90;58.87
68822;BME280;55834;50.870;4.606;2023-02-11T11:41:58;102930.88;;;7.53;59.66
68822;BME280;55834;50.870;4.606;2023-02-11T11:44:25;102938.81;;;7.54;59.23
68822;BME280;55834;50.870;4.606;2023-02-11T11:47:12;102935.19;;;7.95;59.20
68822;BME280;55834;50.870;4.606;2023-02-11T11:49:47;102929.72;;;7.84;59.58
68822;BME280;55834;50.870;4.606;2023-02-11T11:57:34;102937.72;;;7.90;57.80
68822;BME280;55834;50.870;4.606;2023-02-11T12:00:01;102942.47;;;8.08;59.03
68822;BME280;55834;50.870;4.606;2023-02-11T12:02:37;102929.44;;;8.16;58.44
68822;BME280;55834;50.870;4.606;2023-02-11T12:05:26;102940.06;;;7.75;59.37
68822;BME280;55834;50.870;4.606;2023-02-11T12:08:14;102928.41;;;7.16;60.63
68822;BME280;55834;50.870;4.606;2023-02-11T12:10:52;102932.94;;;7.67;60.18
68822;BME280;55834;50.870;4.606;2023-02-11T12:19:15;102941.69;;;7.22;60.11
68822;BME280;55834;50.870;4.606;2023-02-11T12:22:18;102946.94;;;7.66;61.01
68822;BME280;55834;50.870;4.606;2023-02-11T12:35:49;102937.19;;;7.61;59.75
68822;BME280;55834;50.870;4.606;2023-02-11T12:38:39;102942.84;;;7.37;60.39
68822;BME280;55834;50.870;4.606;2023-02-11T12:44:24;102943.00;;;7.44;59.35
68822;BME280;55834;50.870;4.606;2023-02-11T12:47:11;102942.81;;;7.81;60.78
68822;BME280;55834;50.870;4.606;2023-02-11T12:49:57;102937.47;;;7.31;61.19
68822;BME280;55834;50.870;4.606;2023-02-11T12:55:19;102947.34;;;7.42;60.36
68822;BME280;55834;50.870;4.606;2023-02-11T12:57:47;102944.88;;;7.09;60.93
68822;BME280;55834;50.870;4.606;2023-02-11T13:00:21;102935.91;;;7.40;61.89
68822;BME280;55834;50.870;4.606;2023-02-11T13:05:51;102936.28;;;7.60;61.82
68822;BME280;55834;50.870;4.606;2023-02-11T13:08:30;102926.56;;;8.03;60.49
68822;BME280;55834;50.870;4.606;2023-02-11T13:11:00;102922.03;;;7.48;59.86
68822;BME280;55834;50.870;4.606;2023-02-11T13:13:30;102926.00;;;6.85;61.82
68822;BME280;55834;50.870;4.606;2023-02-11T13:16:00;102911.22;;;7.32;61.54
68822;BME280;55834;50.870;4.606;2023-02-11T13:18:39;102905.00;;;7.74;60.24
68822;BME280;55834;50.870;4.606;2023-02-11T13:26:32;102922.72;;;7.37;61.57
68822;BME280;55834;50.870;4.606;2023-02-11T13:29:28;102914.00;;;7.38;60.18
68822;BME280;55834;50.870;4.606;2023-02-11T13:31:56;102907.38;;;7.60;61.69
68822;BME280;55834;50.870;4.606;2023-02-11T13:37:24;102905.78;;;7.70;59.78
68822;BME280;55834;50.870;4.606;2023-02-11T13:42:53;102898.66;;;8.11;59.33
68822;BME280;55834;50.870;4.606;2023-02-11T13:45:43;102906.94;;;7.84;58.47
68822;BME280;55834;50.870;4.606;2023-02-11T13:48:22;102906.34;;;8.01;60.55
68822;BME280;55834;50.870;4.606;2023-02-11T13:50:55;102907.63;;;8.24;58.99
68822;BME280;55834;50.870;4.606;2023-02-11T13:53:22;102905.28;;;8.41;58.56
68822;BME280;55834;50.870;4.606;2023-02-11T13:55:50;102908.88;;;8.48;57.71
68822;BME280;55834;50.870;4.606;2023-02-11T14:00:55;102898.91;;;8.27;58.92
68822;BME280;55834;50.870;4.606;2023-02-11T14:03:24;102896.53;;;8.44;58.23
68822;BME280;55834;50.870;4.606;2023-02-11T14:19:37;102910.78;;;8.03;58.05
68822;BME280;55834;50.870;4.606;2023-02-11T14:22:10;102911.78;;;8.10;59.16
68822;BME280;55834;50.870;4.606;2023-02-11T14:27:09;102899.66;;;8.18;57.61
68822;BME280;55834;50.870;4.606;2023-02-11T14:41:05;102897.47;;;8.47;59.25
68822;BME280;55834;50.870;4.606;2023-02-11T14:43:38;102902.38;;;8.23;58.53
68822;BME280;55834;50.870;4.606;2023-02-11T14:46:04;102900.56;;;8.22;58.13
68822;BME280;55834;50.870;4.606;2023-02-11T14:48:33;102904.09;;;8.22;60.14
68822;BME280;55834;50.870;4.606;2023-02-11T14:51:09;102902.56;;;8.36;58.13
68822;BME280;55834;50.870;4.606;2023-02-11T14:53:36;102906.75;;;8.24;58.00
68822;BME280;55834;50.870;4.606;2023-02-11T14:56:02;102904.31;;;8.34;58.36
68822;BME280;55834;50.870;4.606;2023-02-11T14:58:29;102907.94;;;8.43;58.74
68822;BME280;55834;50.870;4.606;2023-02-11T15:01:02;102904.56;;;8.51;57.75
68822;BME280;55834;50.870;4.606;2023-02-11T15:03:41;102903.84;;;8.65;57.55
68822;BME280;55834;50.870;4.606;2023-02-11T15:06:36;102899.25;;;8.50;57.92
68822;BME280;55834;50.870;4.606;2023-02-11T15:09:13;102913.59;;;8.70;57.73
68822;BME280;55834;50.870;4.606;2023-02-11T15:11:42;102915.50;;;8.82;56.73